Time;durP1;ratioP1;P1;durP2;ratioP2;P2;SDS_P1;SDS_P2;PMS_P1;PMS_P2;Temp;Humidity;BMP_temperature;BMP_pressure;BME280_temperature;BME280_humidity;BME280_pressure;Samples;Min_cycle;Max_cycle;Signal;HPM_P1;HPM_P2
2021/07/11 00:01:32;;;;;;;6.78;4.03;;;;;;;19.59;100.00;96324.56;5038070;28;20212;-70
2021/07/11 00:03:58;;;;;;;10.68;4.00;;;;;;;19.48;100.00;96319.19;5037957;28;20202;-69
2021/07/11 00:06:25;;;;;;;13.88;5.68;;;;;;;19.48;98.48;96319.19;5038416;28;20208;-69
2021/07/11 00:08:52;;;;;;;8.15;4.13;;;;;;;19.64;100.00;96325.50;5036917;28;20257;-70
2021/07/11 00:11:20;;;;;;;7.45;3.65;;;;;;;19.38;100.00;96324.28;5037656;28;20201;-70
2021/07/11 00:13:46;;;;;;;5.90;4.00;;;;;;;19.19;100.00;96326.19;5038004;28;20205;-70
2021/07/11 00:16:12;;;;;;;8.60;4.32;;;;;;;19.63;100.00;96326.53;5037972;28;20208;-70
2021/07/11 00:18:39;;;;;;;9.88;4.18;;;;;;;19.56;100.00;96332.22;5036998;28;20254;-70
2021/07/11 00:21:05;;;;;;;6.93;3.97;;;;;;;19.43;100.00;96327.09;5037518;28;20197;-70
2021/07/11 00:23:32;;;;;;;9.23;3.78;;;;;;;19.39;99.77;96331.28;5037992;28;20961;-70
2021/07/11 00:25:58;;;;;;;5.22;3.65;;;;;;;19.29;100.00;96333.69;5037197;28;20717;-70
2021/07/11 00:28:26;;;;;;;11.45;4.53;;;;;;;19.40;100.00;96330.19;5036957;28;20251;-69
2021/07/11 00:30:53;;;;;;;8.07;4.78;;;;;;;19.57;100.00;96329.31;5037530;28;20205;-69
2021/07/11 00:33:19;;;;;;;7.78;4.47;;;;;;;19.53;100.00;96333.50;5037133;28;20666;-69
2021/07/11 00:35:45;;;;;;;9.27;4.15;;;;;;;19.12;100.00;96332.69;5037261;28;20205;-70
2021/07/11 00:38:12;;;;;;;6.10;4.10;;;;;;;19.27;100.00;96333.06;5037121;28;20208;-70
2021/07/11 00:40:38;;;;;;;7.55;4.18;;;;;;;19.52;100.00;96325.72;5035168;28;20704;-70
2021/07/11 00:43:05;;;;;;;6.63;3.80;;;;;;;19.37;100.00;96322.66;5037569;28;20209;-70
2021/07/11 00:45:33;;;;;;;5.15;3.30;;;;;;;19.19;100.00;96330.72;5038053;28;20608;-70
2021/07/11 00:47:59;;;;;;;3.78;3.20;;;;;;;19.28;99.81;96332.03;5036677;28;20228;-70
2021/07/11 00:50:26;;;;;;;6.18;3.60;;;;;;;19.50;100.00;96327.78;5036816;28;20209;-70
2021/07/11 00:52:52;;;;;;;7.95;4.20;;;;;;;19.28;100.00;96332.84;5037859;28;20216;-70
2021/07/11 00:55:20;;;;;;;9.52;3.85;;;;;;;19.40;100.00;96339.06;5037127;28;20197;-70
2021/07/11 00:57:46;;;;;;;6.30;4.15;;;;;;;19.60;100.00;96342.22;5040199;28;20973;-70
2021/07/11 01:00:14;;;;;;;5.78;4.10;;;;;;;19.25;100.00;96345.88;5041487;28;20679;-70
2021/07/11 01:02:52;;;;;;;7.57;4.03;;;;;;;19.16;100.00;96344.56;5041517;28;20950;-69
2021/07/11 01:05:18;;;;;;;5.70;3.60;;;;;;;19.21;100.00;96350.03;5041511;28;20205;-70
2021/07/11 01:07:49;;;;;;;6.82;3.55;;;;;;;19.19;100.00;96354.78;5040894;28;20209;-69
2021/07/11 01:10:22;;;;;;;5.72;3.70;;;;;;;18.95;100.00;96356.53;5041372;28;20225;-70
2021/07/11 01:12:51;;;;;;;4.75;3.38;;;;;;;19.24;100.00;96363.72;5041174;28;20209;-69
2021/07/11 01:15:17;;;;;;;6.05;3.97;;;;;;;19.51;100.00;96353.47;5041103;28;20201;-69
2021/07/11 01:17:45;;;;;;;5.85;3.25;;;;;;;19.37;100.00;96354.72;5040809;28;20296;-70
2021/07/11 01:20:26;;;;;;;10.32;3.40;;;;;;;19.16;100.00;96360.59;5040555;28;20228;-69
2021/07/11 01:22:56;;;;;;;5.32;2.95;;;;;;;19.11;100.00;96360.44;5042075;28;20220;-71
2021/07/11 01:25:34;;;;;;;7.45;3.30;;;;;;;19.08;100.00;96355.53;5041230;28;20228;-70
2021/07/11 01:28:01;;;;;;;5.65;2.58;;;;;;;18.82;100.00;96355.06;5039382;28;20728;-70
2021/07/11 01:30:29;;;;;;;4.88;2.78;;;;;;;18.98;100.00;96352.59;5040841;28;20209;-70
2021/07/11 01:32:58;;;;;;;5.05;2.65;;;;;;;18.99;100.00;96348.84;5040957;28;20886;-70
2021/07/11 01:35:25;;;;;;;3.83;2.80;;;;;;;18.94;100.00;96343.41;5041203;28;20205;-69
2021/07/11 01:37:52;;;;;;;3.95;2.78;;;;;;;19.05;100.00;96346.13;5040967;28;20205;-69
2021/07/11 01:40:20;;;;;;;4.25;2.80;;;;;;;18.88;100.00;96333.59;5038976;28;20217;-70
2021/07/11 01:42:49;;;;;;;4.40;2.72;;;;;;;18.60;100.00;96336.00;5040026;28;20212;-70
2021/07/11 01:45:15;;;;;;;8.20;2.78;;;;;;;18.80;100.00;96336.59;5040912;28;20225;-70
2021/07/11 01:47:43;;;;;;;4.20;2.67;;;;;;;18.93;100.00;96336.41;5039576;28;20700;-70
2021/07/11 01:50:11;;;;;;;5.55;3.00;;;;;;;19.02;100.00;96337.72;5040080;28;20221;-70
2021/07/11 01:52:40;;;;;;;6.68;3.08;;;;;;;19.18;100.00;96337.13;5040405;28;20216;-69
2021/07/11 01:55:09;;;;;;;3.97;2.78;;;;;;;18.85;100.00;96336.75;5041230;28;20208;-69
2021/07/11 01:57:37;;;;;;;4.22;2.67;;;;;;;18.95;100.00;96335.16;5039738;28;20247;-70
2021/07/11 02:00:06;;;;;;;5.95;2.83;;;;;;;19.15;100.00;96338.38;5039996;28;20221;-70
2021/07/11 02:02:33;;;;;;;6.57;2.80;;;;;;;18.89;100.00;96339.75;5040554;28;20209;-70
2021/07/11 02:05:01;;;;;;;3.97;2.67;;;;;;;19.10;100.00;96342.78;5040069;28;20232;-69
2021/07/11 02:07:27;;;;;;;4.03;2.90;;;;;;;19.14;100.00;96333.28;5039418;28;20208;-69
2021/07/11 02:09:54;;;;;;;4.53;2.70;;;;;;;19.00;100.00;96335.28;5039661;28;20228;-70
2021/07/11 02:12:22;;;;;;;16.40;3.63;;;;;;;19.19;100.00;96344.09;5040494;28;20205;-69
2021/07/11 02:14:49;;;;;;;4.50;2.13;;;;;;;18.89;99.62;96337.91;5040702;28;20197;-70
2021/07/11 02:17:21;;;;;;;6.20;2.90;;;;;;;19.12;99.69;96340.72;5039747;28;20197;-69
2021/07/11 02:19:49;;;;;;;5.22;2.65;;;;;;;19.08;99.68;96340.34;5040463;28;20232;-69
2021/07/11 02:22:16;;;;;;;4.95;2.60;;;;;;;19.03;100.00;96336.69;5040735;28;20658;-70
2021/07/11 02:24:45;;;;;;;3.22;2.53;;;;;;;18.99;99.91;96332.81;5039848;28;20815;-70
2021/07/11 02:27:12;;;;;;;3.60;2.60;;;;;;;19.08;98.58;96334.16;5036328;28;20238;-70
2021/07/11 02:29:41;;;;;;;2.63;2.10;;;;;;;18.97;98.19;96340.25;5039964;28;20237;-69
2021/07/11 02:32:10;;;;;;;4.18;2.45;;;;;;;18.83;100.00;96328.13;5039945;28;20197;-69
2021/07/11 02:34:40;;;;;;;5.72;2.60;;;;;;;19.02;99.45;96327.03;5040073;28;20201;-69
2021/07/11 02:37:08;;;;;;;4.50;2.50;;;;;;;19.00;100.00;96318.44;5040509;28;21022;-69
2021/07/11 02:39:37;;;;;;;5.28;2.42;;;;;;;19.18;98.81;96315.75;5039417;28;20228;-70
2021/07/11 02:42:07;;;;;;;10.48;2.83;;;;;;;19.10;98.99;96310.72;5037497;28;20198;-70
2021/07/11 02:44:36;;;;;;;3.20;2.20;;;;;;;19.15;97.64;96317.00;5040248;28;20566;-70
2021/07/11 02:47:07;;;;;;;3.83;2.17;;;;;;;19.18;98.36;96329.94;5039491;28;20229;-70
2021/07/11 02:49:34;;;;;;;2.67;2.00;;;;;;;19.03;98.01;96336.69;5039733;28;20233;-70
2021/07/11 02:52:06;;;;;;;3.40;2.10;;;;;;;18.88;98.21;96332.81;5040350;28;20212;-69
2021/07/11 02:54:39;;;;;;;4.63;2.50;;;;;;;19.09;98.54;96330.47;5040457;28;20211;-70
2021/07/11 02:57:06;;;;;;;6.05;2.60;;;;;;;18.94;99.08;96327.38;5039796;28;20205;-69
2021/07/11 02:59:34;;;;;;;7.70;2.35;;;;;;;18.87;100.00;96336.50;5040128;28;20229;-69
2021/07/11 03:02:03;;;;;;;4.20;2.53;;;;;;;18.92;99.47;96328.63;5040371;28;20205;-70
2021/07/11 03:04:31;;;;;;;6.28;2.10;;;;;;;18.47;98.77;96336.16;5040512;28;20986;-70
2021/07/11 03:06:57;;;;;;;6.60;2.20;;;;;;;18.50;100.00;96335.72;5041328;28;20590;-69
2021/07/11 03:09:25;;;;;;;3.67;2.50;;;;;;;18.78;99.56;96333.31;5040814;28;21056;-69
2021/07/11 03:11:52;;;;;;;3.45;2.08;;;;;;;18.69;100.00;96334.66;5040836;28;20205;-69
2021/07/11 03:14:22;;;;;;;5.32;2.42;;;;;;;18.79;99.63;96329.63;5040321;28;20205;-69
2021/07/11 03:16:53;;;;;;;4.03;2.60;;;;;;;18.91;98.38;96327.81;5040750;28;20569;-70
2021/07/11 03:19:21;;;;;;;5.20;2.30;;;;;;;18.92;97.16;96329.44;5040455;28;20229;-69
2021/07/11 03:21:49;;;;;;;5.95;2.38;;;;;;;18.87;97.76;96326.63;5041428;28;20753;-70
2021/07/11 03:24:18;;;;;;;3.03;2.28;;;;;;;19.00;97.73;96326.44;5040847;28;20278;-69
2021/07/11 03:26:46;;;;;;;5.68;2.20;;;;;;;18.86;97.44;96319.66;5040715;28;20221;-70
2021/07/11 03:29:25;;;;;;;3.45;1.90;;;;;;;18.81;96.96;96324.03;5039712;28;20224;-69
2021/07/11 03:31:53;;;;;;;5.65;2.30;;;;;;;18.84;98.09;96326.25;5039630;28;20324;-70
2021/07/11 03:34:22;;;;;;;4.25;2.20;;;;;;;18.77;98.57;96321.00;5040018;28;20211;-70
2021/07/11 03:36:51;;;;;;;5.05;2.30;;;;;;;18.73;97.78;96324.38;5040198;28;20219;-69
2021/07/11 03:39:19;;;;;;;5.40;2.35;;;;;;;18.67;97.99;96320.75;5038727;28;20576;-69
2021/07/11 03:41:48;;;;;;;4.30;2.10;;;;;;;18.72;97.53;96322.72;5038725;28;20212;-69
2021/07/11 03:44:18;;;;;;;5.18;2.00;;;;;;;18.72;98.02;96315.53;5040974;28;20205;-70
2021/07/11 03:46:47;;;;;;;3.28;1.98;;;;;;;18.74;97.11;96321.47;5040236;28;20232;-70
2021/07/11 03:49:16;;;;;;;3.95;2.28;;;;;;;18.71;98.30;96316.59;5040309;28;20747;-70
2021/07/11 03:51:42;;;;;;;7.15;2.10;;;;;;;18.78;98.37;96322.63;5040414;28;20204;-70
2021/07/11 03:54:11;;;;;;;4.15;2.00;;;;;;;18.69;98.84;96325.84;5039012;28;20197;-69
2021/07/11 03:56:38;;;;;;;2.38;1.98;;;;;;;18.66;98.77;96324.44;5039368;28;20205;-69
2021/07/11 03:59:07;;;;;;;6.95;1.77;;;;;;;18.40;98.34;96321.28;5040036;28;20224;-70
2021/07/11 04:01:36;;;;;;;3.65;1.90;;;;;;;18.48;98.60;96321.78;5039436;28;20209;-70
2021/07/11 04:04:06;;;;;;;3.42;2.13;;;;;;;18.52;98.34;96317.63;5039763;28;20205;-69
2021/07/11 04:06:33;;;;;;;4.22;1.90;;;;;;;18.64;98.65;96323.84;5038895;28;20240;-70
2021/07/11 04:09:03;;;;;;;3.08;1.90;;;;;;;18.62;98.40;96328.59;5038221;28;20236;-70
2021/07/11 04:11:30;;;;;;;5.72;1.90;;;;;;;18.65;97.81;96327.34;5038353;28;20205;-69
2021/07/11 04:13:56;;;;;;;2.80;1.80;;;;;;;18.67;97.69;96328.75;5038911;28;20200;-70
2021/07/11 04:16:27;;;;;;;2.38;1.60;;;;;;;18.62;97.89;96333.94;5039189;28;20335;-70
2021/07/11 04:18:56;;;;;;;5.00;1.90;;;;;;;18.69;98.50;96326.66;5038064;28;20228;-69
2021/07/11 04:21:24;;;;;;;3.40;1.58;;;;;;;18.85;97.22;96327.88;5039199;28;20205;-69
2021/07/11 04:23:52;;;;;;;7.45;1.92;;;;;;;18.75;97.14;96324.94;5038584;28;20209;-70
2021/07/11 04:26:19;;;;;;;4.00;2.05;;;;;;;18.75;97.37;96333.78;5038150;28;20221;-69
2021/07/11 04:28:48;;;;;;;2.40;1.60;;;;;;;18.65;97.21;96325.47;5038803;28;20235;-70
2021/07/11 04:31:14;;;;;;;5.05;1.90;;;;;;;18.80;96.87;96325.91;5038320;28;20228;-69
2021/07/11 04:33:42;;;;;;;7.03;2.13;;;;;;;18.76;97.35;96326.56;5038628;28;20581;-70
2021/07/11 04:36:09;;;;;;;6.47;1.75;;;;;;;18.56;97.59;96321.47;5038596;28;20193;-69
2021/07/11 04:38:35;;;;;;;8.20;1.90;;;;;;;18.81;96.94;96316.84;5038086;28;20597;-70
2021/07/11 04:41:03;;;;;;;8.10;1.90;;;;;;;18.83;97.30;96314.78;5035932;28;20213;-69
2021/07/11 04:43:29;;;;;;;5.28;1.73;;;;;;;18.85;96.95;96323.38;5038014;28;20205;-69
2021/07/11 04:45:56;;;;;;;6.80;2.13;;;;;;;18.87;97.18;96323.16;5038710;28;20235;-69
2021/07/11 04:48:22;;;;;;;5.10;2.15;;;;;;;18.83;96.33;96325.44;5037649;28;20229;-69
2021/07/11 04:50:50;;;;;;;6.75;2.30;;;;;;;18.95;96.08;96331.66;5038694;28;20241;-69
2021/07/11 04:53:17;;;;;;;7.97;2.33;;;;;;;19.03;96.20;96331.34;5038865;28;20205;-70
2021/07/11 04:55:45;;;;;;;3.08;1.77;;;;;;;18.99;96.06;96327.47;5038592;28;20300;-70
2021/07/11 04:58:11;;;;;;;6.28;1.98;;;;;;;19.17;94.76;96328.28;5037447;28;21043;-70
2021/07/11 05:00:38;;;;;;;4.82;1.92;;;;;;;19.18;95.17;96331.78;5039581;28;20205;-69
2021/07/11 05:03:05;;;;;;;3.97;1.98;;;;;;;19.09;94.97;96333.13;5039284;28;20205;-71
2021/07/11 05:05:34;;;;;;;4.93;1.98;;;;;;;19.22;94.81;96335.63;5039220;28;20212;-70
2021/07/11 05:08:02;;;;;;;5.68;1.80;;;;;;;19.28;94.36;96327.50;5038596;28;20470;-70
2021/07/11 05:10:29;;;;;;;2.95;1.75;;;;;;;19.34;94.39;96331.13;5039953;28;20201;-71
2021/07/11 05:12:55;;;;;;;5.03;1.90;;;;;;;19.12;94.64;96330.03;5039982;28;20209;-70
2021/07/11 05:15:23;;;;;;;3.50;1.67;;;;;;;19.24;95.04;96329.00;5038957;28;20209;-70
2021/07/11 05:17:49;;;;;;;2.47;1.73;;;;;;;19.31;94.33;96328.91;5038265;28;20198;-71
2021/07/11 05:20:16;;;;;;;2.50;1.63;;;;;;;18.95;93.43;96329.81;5038288;28;20609;-70
2021/07/11 05:22:42;;;;;;;3.33;1.98;;;;;;;18.85;93.72;96320.72;5037718;28;20666;-70
2021/07/11 05:25:11;;;;;;;3.33;1.90;;;;;;;18.99;92.55;96322.13;5038603;28;20589;-70
2021/07/11 05:27:38;;;;;;;5.38;1.70;;;;;;;19.12;93.88;96325.50;5037211;28;20256;-70
2021/07/11 05:30:06;;;;;;;5.13;1.70;;;;;;;19.14;94.19;96334.09;5038099;28;20229;-70
2021/07/11 05:32:32;;;;;;;2.60;1.70;;;;;;;18.98;94.56;96325.88;5039319;28;20216;-70
2021/07/11 05:34:59;;;;;;;3.17;1.60;;;;;;;19.19;93.01;96320.84;5038311;28;20209;-71
2021/07/11 05:37:25;;;;;;;4.78;1.60;;;;;;;19.02;93.80;96325.19;5037936;28;20213;-71
2021/07/11 05:39:52;;;;;;;2.50;2.05;;;;;;;19.10;93.11;96332.09;5036761;28;20240;-70
2021/07/11 05:42:20;;;;;;;2.90;1.65;;;;;;;18.96;93.81;96328.78;5039256;28;20790;-71
2021/07/11 05:44:46;;;;;;;9.50;2.03;;;;;;;19.22;94.42;96336.44;5042687;28;20224;-71
2021/07/11 05:47:12;;;;;;;5.70;1.77;;;;;;;19.28;94.55;96335.50;5041639;28;20221;-71
2021/07/11 05:49:39;;;;;;;7.82;1.98;;;;;;;19.14;95.20;96343.94;5041512;28;20221;-72
2021/07/11 05:52:06;;;;;;;4.95;2.83;;;;;;;19.50;94.38;96346.50;5039396;28;20209;-72
2021/07/11 05:54:32;;;;;;;7.70;2.33;;;;;;;19.44;95.00;96340.22;5039909;28;20219;-72
2021/07/11 05:56:59;;;;;;;6.13;2.20;;;;;;;19.57;95.48;96339.22;5039098;28;20209;-72
2021/07/11 05:59:27;;;;;;;7.25;2.30;;;;;;;19.64;95.53;96335.41;5038345;28;20593;-72
2021/07/11 06:01:53;;;;;;;5.25;1.90;;;;;;;19.59;93.33;96335.25;5039565;28;20209;-72
2021/07/11 06:04:20;;;;;;;6.13;1.70;;;;;;;19.57;94.38;96340.81;5039287;28;20212;-71
2021/07/11 06:06:46;;;;;;;5.15;2.20;;;;;;;19.19;94.05;96342.22;5038981;28;20240;-72
2021/07/11 06:09:13;;;;;;;5.72;2.00;;;;;;;19.38;93.21;96348.34;5038815;28;20220;-72
2021/07/11 06:11:39;;;;;;;2.20;1.60;;;;;;;19.19;93.03;96357.44;5039883;28;20204;-71
2021/07/11 06:14:06;;;;;;;2.65;1.65;;;;;;;18.81;95.06;96348.88;5039070;28;20678;-72
2021/07/11 06:16:34;;;;;;;2.33;1.60;;;;;;;18.79;96.20;96348.31;5039419;28;20229;-72
2021/07/11 06:19:01;;;;;;;2.90;2.00;;;;;;;18.76;96.44;96350.59;5039154;28;20228;-71
2021/07/11 06:21:27;;;;;;;5.80;2.00;;;;;;;18.88;96.47;96354.97;5039457;28;20213;-71
2021/07/11 06:23:54;;;;;;;4.40;1.95;;;;;;;19.03;95.08;96358.06;5039446;28;20209;-72
2021/07/11 06:26:20;;;;;;;3.17;2.08;;;;;;;19.18;95.21;96367.34;5039644;28;20735;-72
2021/07/11 06:28:47;;;;;;;3.60;1.80;;;;;;;18.94;95.76;96370.09;5039554;28;21195;-71
2021/07/11 06:31:13;;;;;;;6.90;2.28;;;;;;;19.14;94.81;96368.00;5040236;28;21262;-72
2021/07/11 06:33:41;;;;;;;3.60;2.08;;;;;;;19.24;94.56;96365.59;5039912;28;20580;-71
2021/07/11 06:36:07;;;;;;;2.85;2.20;;;;;;;19.42;96.21;96368.22;5039591;28;20208;-72
2021/07/11 06:38:34;;;;;;;3.88;2.10;;;;;;;19.00;95.49;96363.84;5039268;28;20221;-72
2021/07/11 06:41:00;;;;;;;5.35;2.17;;;;;;;19.23;94.42;96374.66;5037510;28;20212;-72
2021/07/11 06:43:27;;;;;;;2.95;2.00;;;;;;;19.25;95.26;96377.94;5040101;28;20220;-72
2021/07/11 06:45:53;;;;;;;4.97;2.30;;;;;;;19.16;94.35;96379.28;5040252;28;20201;-71
2021/07/11 06:48:20;;;;;;;5.28;1.85;;;;;;;19.24;94.84;96373.63;5038749;28;20248;-72
2021/07/11 06:50:47;;;;;;;4.15;1.90;;;;;;;18.96;95.37;96368.00;5038772;28;20892;-72
2021/07/11 06:53:14;;;;;;;3.45;1.98;;;;;;;19.49;95.03;96379.63;5037255;28;20665;-72
2021/07/11 06:55:40;;;;;;;3.15;2.10;;;;;;;19.18;94.46;96379.84;5035683;28;20197;-73
2021/07/11 06:58:07;;;;;;;3.55;1.90;;;;;;;19.37;93.88;96384.13;5037653;28;20209;-73
2021/07/11 07:00:34;;;;;;;4.45;2.47;;;;;;;19.43;93.60;96373.34;5038504;28;20208;-72
2021/07/11 07:03:01;;;;;;;6.30;2.05;;;;;;;19.56;92.13;96375.00;5038429;28;20209;-72
2021/07/11 07:05:27;;;;;;;5.35;2.20;;;;;;;19.54;91.78;96377.91;5038819;28;20211;-72
2021/07/11 07:07:56;;;;;;;3.25;2.10;;;;;;;19.74;90.03;96370.38;5037951;28;20221;-72
2021/07/11 07:10:24;;;;;;;3.50;2.15;;;;;;;19.48;91.06;96370.78;5036812;28;20225;-72
2021/07/11 07:12:50;;;;;;;4.40;2.10;;;;;;;19.79;91.18;96363.31;5036049;28;20229;-72
2021/07/11 07:15:17;;;;;;;5.65;2.00;;;;;;;20.10;89.11;96365.69;5038103;28;21126;-72
2021/07/11 07:17:44;;;;;;;6.72;3.00;;;;;;;20.49;90.25;96351.56;5036597;28;20220;-72
2021/07/11 07:20:11;;;;;;;3.08;2.10;;;;;;;20.27;87.80;96361.25;5038424;28;20227;-72
2021/07/11 07:22:38;;;;;;;3.25;2.33;;;;;;;20.09;89.37;96356.03;5038096;28;20205;-73
2021/07/11 07:25:08;;;;;;;3.33;2.08;;;;;;;20.14;89.84;96358.81;5038137;28;20930;-71
2021/07/11 07:27:35;;;;;;;3.92;2.33;;;;;;;20.22;89.63;96355.78;5037690;28;20231;-72
2021/07/11 07:30:01;;;;;;;3.08;2.28;;;;;;;20.26;88.46;96351.59;5035243;28;20231;-72
2021/07/11 07:32:28;;;;;;;3.88;2.83;;;;;;;20.29;88.69;96361.84;5037852;28;20197;-72
2021/07/11 07:34:54;;;;;;;4.03;2.60;;;;;;;20.27;87.17;96359.38;5038587;28;20222;-72
2021/07/11 07:37:21;;;;;;;3.53;2.78;;;;;;;20.35;91.38;96358.22;5037271;28;20217;-72
2021/07/11 07:39:47;;;;;;;5.70;2.83;;;;;;;20.67;87.63;96351.44;5036568;28;20708;-72
2021/07/11 07:42:16;;;;;;;4.55;2.70;;;;;;;20.89;86.96;96358.63;5037672;28;20232;-71
2021/07/11 07:44:43;;;;;;;9.07;2.92;;;;;;;20.81;84.84;96350.16;5037828;28;20220;-72
2021/07/11 07:47:09;;;;;;;7.10;2.80;;;;;;;20.80;84.74;96353.88;5036964;28;20217;-72
2021/07/11 07:49:36;;;;;;;7.68;3.08;;;;;;;20.87;86.04;96358.88;5037310;28;20225;-72
2021/07/11 07:52:03;;;;;;;5.70;3.08;;;;;;;20.92;85.46;96358.94;5037221;28;20201;-72
2021/07/11 07:54:30;;;;;;;5.43;3.22;;;;;;;21.07;87.08;96350.41;5036707;28;20201;-72
2021/07/11 07:56:56;;;;;;;5.97;3.25;;;;;;;21.09;83.64;96354.50;5037156;28;21038;-72
2021/07/11 07:59:24;;;;;;;5.32;2.78;;;;;;;21.47;84.71;96351.97;5036547;28;20240;-72
2021/07/11 08:01:51;;;;;;;6.03;3.53;;;;;;;21.66;84.14;96358.78;5037299;28;20216;-72
2021/07/11 08:04:20;;;;;;;8.45;3.10;;;;;;;21.80;81.11;96362.78;5037371;28;20224;-72
2021/07/11 08:06:47;;;;;;;4.20;2.97;;;;;;;21.63;79.00;96360.06;5036662;28;20205;-72
2021/07/11 08:09:13;;;;;;;3.40;3.10;;;;;;;21.62;79.33;96363.81;5036165;28;20221;-72
2021/07/11 08:11:40;;;;;;;4.57;3.20;;;;;;;21.72;80.81;96365.88;5037892;28;20205;-71
2021/07/11 08:14:06;;;;;;;5.40;3.17;;;;;;;21.72;80.91;96361.31;5039595;28;20205;-72
2021/07/11 08:16:34;;;;;;;6.50;3.42;;;;;;;21.70;78.66;96363.44;5040151;28;20205;-72
2021/07/11 08:19:01;;;;;;;6.88;3.20;;;;;;;21.98;78.98;96365.22;5038864;28;20221;-72
2021/07/11 08:21:29;;;;;;;5.20;2.85;;;;;;;21.46;78.83;96369.13;5039182;28;20211;-71
2021/07/11 08:23:55;;;;;;;7.28;3.30;;;;;;;21.30;79.76;96367.22;5037196;28;20209;-71
2021/07/11 08:26:22;;;;;;;3.67;3.33;;;;;;;21.38;80.95;96374.84;5033589;28;20201;-72
2021/07/11 08:28:49;;;;;;;4.25;3.28;;;;;;;21.52;81.00;96377.06;5036654;28;20240;-72
2021/07/11 08:31:15;;;;;;;4.70;3.03;;;;;;;21.68;78.58;96376.25;5038458;28;20205;-72
2021/07/11 08:33:43;;;;;;;7.35;3.30;;;;;;;21.64;80.52;96380.47;5039070;28;20205;-71
2021/07/11 08:36:10;;;;;;;3.38;3.08;;;;;;;21.66;81.00;96377.56;5037490;28;20212;-71
2021/07/11 08:38:37;;;;;;;6.07;3.38;;;;;;;21.34;80.83;96379.06;5037031;28;20244;-71
2021/07/11 08:41:03;;;;;;;4.30;3.63;;;;;;;21.99;82.81;96380.28;5037316;28;20205;-72
2021/07/11 08:43:31;;;;;;;5.15;3.50;;;;;;;22.36;78.79;96380.34;5037895;28;20227;-72
2021/07/11 08:45:57;;;;;;;4.70;3.55;;;;;;;22.38;77.32;96378.25;5038321;28;20677;-71
2021/07/11 08:48:24;;;;;;;6.25;3.15;;;;;;;22.69;75.32;96377.59;5034377;28;20233;-72
2021/07/11 08:50:52;;;;;;;4.18;2.85;;;;;;;22.42;76.99;96379.38;5035133;28;20205;-71
2021/07/11 08:53:20;;;;;;;3.85;3.03;;;;;;;22.79;75.16;96380.44;5034809;28;20205;-72
2021/07/11 08:55:47;;;;;;;4.90;2.90;;;;;;;22.74;73.93;96383.03;5035842;28;20292;-72
2021/07/11 08:58:14;;;;;;;4.20;2.50;;;;;;;23.13;67.92;96376.56;5034944;28;20205;-71
2021/07/11 09:00:41;;;;;;;5.60;2.97;;;;;;;23.11;71.81;96370.66;5036128;28;20259;-72
2021/07/11 09:03:08;;;;;;;5.05;2.90;;;;;;;23.27;70.86;96369.75;5037041;28;20212;-72
2021/07/11 09:05:39;;;;;;;5.47;3.55;;;;;;;23.49;67.35;96376.72;5037224;28;20216;-72
2021/07/11 09:08:13;;;;;;;4.85;2.63;;;;;;;23.81;71.15;96380.31;5036632;28;20232;-72
2021/07/11 09:10:46;;;;;;;6.10;2.40;;;;;;;23.25;66.36;96374.56;5037069;28;20216;-72
2021/07/11 09:13:16;;;;;;;3.50;2.38;;;;;;;23.61;68.60;96364.75;5037872;28;20201;-72
2021/07/11 09:15:47;;;;;;;7.82;2.25;;;;;;;24.36;70.05;96378.88;5037912;28;20201;-72
2021/07/11 09:18:13;;;;;;;3.28;2.05;;;;;;;24.22;62.12;96378.50;5037815;28;20255;-71
2021/07/11 09:20:50;;;;;;;5.97;2.05;;;;;;;24.10;62.95;96390.53;5041007;28;20197;-72
2021/07/11 09:23:18;;;;;;;2.22;1.77;;;;;;;23.46;68.71;96377.25;5040234;28;20212;-72
2021/07/11 09:25:56;;;;;;;5.05;2.08;;;;;;;23.58;68.09;96377.91;5041849;28;20572;-72
2021/07/11 09:28:23;;;;;;;1.63;1.40;;;;;;;23.50;65.93;96383.75;5038502;28;20225;-71
2021/07/11 09:31:00;;;;;;;2.70;1.67;;;;;;;23.22;68.14;96381.28;5040671;28;20209;-71
2021/07/11 09:33:27;;;;;;;3.30;1.70;;;;;;;23.00;67.20;96393.09;5040215;28;20209;-71
2021/07/11 09:36:04;;;;;;;2.30;1.42;;;;;;;22.66;66.11;96391.53;5040982;28;20205;-72
2021/07/11 09:38:32;;;;;;;3.35;1.85;;;;;;;22.34;67.35;96398.59;5039130;28;20236;-72
2021/07/11 09:40:59;;;;;;;5.35;1.80;;;;;;;22.24;68.63;96393.03;5040000;28;20696;-72
2021/07/11 09:43:25;;;;;;;3.10;2.00;;;;;;;22.19;72.08;96392.94;5038820;28;20220;-72
2021/07/11 09:45:52;;;;;;;4.13;2.00;;;;;;;22.03;73.10;96397.50;5039740;28;20205;-72
2021/07/11 09:48:19;;;;;;;2.83;1.92;;;;;;;21.50;75.75;96389.03;5038494;28;20229;-72
2021/07/11 09:50:45;;;;;;;4.47;2.20;;;;;;;21.56;75.20;96390.78;5038756;28;20205;-73
2021/07/11 09:53:13;;;;;;;5.05;2.50;;;;;;;22.11;76.30;96385.31;5039208;28;20205;-73
2021/07/11 09:55:41;;;;;;;4.45;2.08;;;;;;;21.84;76.18;96388.06;5039119;28;20208;-73
2021/07/11 09:58:11;;;;;;;3.58;1.90;;;;;;;21.90;75.88;96389.78;5036645;28;20215;-73
2021/07/11 10:00:40;;;;;;;2.90;2.08;;;;;;;22.07;75.97;96386.03;5037590;28;20653;-73
2021/07/11 10:03:10;;;;;;;4.50;1.80;;;;;;;22.29;73.25;96384.28;5037699;28;20213;-73
2021/07/11 10:05:36;;;;;;;2.63;1.85;;;;;;;22.49;73.43;96379.19;5034743;28;20205;-73
2021/07/11 10:08:04;;;;;;;5.40;2.10;;;;;;;22.46;72.92;96388.56;5036755;28;21438;-73
2021/07/11 10:10:33;;;;;;;2.83;1.83;;;;;;;22.34;71.78;96395.91;5037858;28;20685;-73
2021/07/11 10:13:03;;;;;;;2.90;1.70;;;;;;;22.35;72.71;96394.00;5038211;28;20744;-73
2021/07/11 10:15:31;;;;;;;3.03;2.17;;;;;;;22.30;70.73;96392.09;5038060;28;21167;-73
2021/07/11 10:18:03;;;;;;;3.03;1.85;;;;;;;22.27;72.39;96389.06;5037623;28;20201;-73
2021/07/11 10:20:32;;;;;;;3.28;2.20;;;;;;;22.23;75.42;96396.75;5037738;28;20202;-73
2021/07/11 10:22:59;;;;;;;8.63;2.38;;;;;;;22.13;74.71;96391.25;5038114;28;20209;-73
2021/07/11 10:25:28;;;;;;;3.40;2.08;;;;;;;22.28;73.81;96380.75;5038446;28;20201;-73
2021/07/11 10:28:08;;;;;;;3.22;2.10;;;;;;;22.55;71.18;96378.22;5037117;28;20217;-73
2021/07/11 10:30:36;;;;;;;4.00;2.30;;;;;;;22.46;71.24;96380.50;5037160;28;20220;-73
2021/07/11 10:33:13;;;;;;;3.00;2.10;;;;;;;22.07;73.94;96383.34;5038227;28;20201;-74
2021/07/11 10:35:59;;;;;;;2.58;2.15;;;;;;;22.05;76.07;96388.16;5038051;28;20205;-74
2021/07/11 10:38:31;;;;;;;3.78;2.28;;;;;;;22.25;75.05;96394.66;5037745;28;20225;-73
2021/07/11 10:41:10;;;;;;;4.65;2.38;;;;;;;22.54;72.39;96390.00;5038115;28;20205;-74
2021/07/11 10:43:38;;;;;;;3.15;1.95;;;;;;;22.43;71.62;96386.38;5038873;28;20205;-74
2021/07/11 10:46:04;;;;;;;3.97;2.30;;;;;;;22.78;73.75;96389.53;5038535;28;20220;-73
2021/07/11 10:48:31;;;;;;;2.88;2.10;;;;;;;23.18;73.17;96382.84;5035647;28;20225;-74
2021/07/11 10:50:58;;;;;;;4.18;2.50;;;;;;;23.07;72.56;96385.66;5037903;28;20209;-74
2021/07/11 10:53:34;;;;;;;3.15;2.22;;;;;;;23.34;68.97;96390.84;5038414;28;20209;-73
2021/07/11 10:56:00;;;;;;;4.78;2.35;;;;;;;23.56;70.19;96391.59;5036802;28;20201;-74
2021/07/11 10:58:39;;;;;;;3.42;2.17;;;;;;;23.69;71.05;96393.91;5037359;28;20244;-73
2021/07/11 11:01:16;;;;;;;6.07;2.40;;;;;;;24.15;70.61;96402.16;5038515;28;20197;-73
2021/07/11 11:03:46;;;;;;;6.38;2.28;;;;;;;24.41;70.58;96403.19;5033705;28;20657;-74
2021/07/11 11:06:14;;;;;;;4.95;1.85;;;;;;;24.36;70.75;96403.13;5031700;28;20197;-74
2021/07/11 11:08:44;;;;;;;4.40;2.33;;;;;;;23.88;73.45;96408.66;5035239;28;20235;-73
2021/07/11 11:11:10;;;;;;;4.55;2.00;;;;;;;23.41;70.86;96412.94;5036092;28;20247;-73
2021/07/11 11:13:38;;;;;;;5.20;2.47;;;;;;;22.89;76.74;96418.19;5034718;28;21067;-73
2021/07/11 11:16:15;;;;;;;4.55;2.60;;;;;;;22.51;75.26;96420.84;5034752;28;20692;-74
2021/07/11 11:18:44;;;;;;;4.57;2.17;;;;;;;22.32;74.96;96416.81;5034140;28;20225;-73
2021/07/11 11:21:14;;;;;;;2.35;1.65;;;;;;;22.11;74.05;96414.03;5036217;28;20205;-73
2021/07/11 11:23:43;;;;;;;2.47;1.88;;;;;;;22.31;75.76;96412.50;5036155;28;20212;-72
2021/07/11 11:26:11;;;;;;;2.78;2.08;;;;;;;22.27;75.12;96414.03;5036529;28;20220;-74
2021/07/11 11:28:41;;;;;;;4.05;2.58;;;;;;;22.38;79.62;96406.97;5035062;28;20231;-75
2021/07/11 11:31:14;;;;;;;3.17;2.05;;;;;;;22.34;77.97;96405.81;5036382;28;20201;-74
2021/07/11 11:33:52;;;;;;;3.10;2.40;;;;;;;22.27;82.40;96405.97;5035817;28;20206;-74
2021/07/11 11:36:20;;;;;;;3.38;2.38;;;;;;;22.09;79.25;96400.84;5035924;28;20197;-72